sensor_id;sensor_type;location;lat;lon;timestamp;pressure;altitude;pressure_sealevel;temperature;humidity
47556;BME280;33291;46.222;26.460;2022-12-05T00:02:19;97665.28;;;-0.16;98.83
47556;BME280;33291;46.222;26.460;2022-12-05T00:04:45;97663.50;;;-0.14;98.65
47556;BME280;33291;46.222;26.460;2022-12-05T00:07:10;97668.78;;;-0.19;98.66
47556;BME280;33291;46.222;26.460;2022-12-05T00:09:36;97670.38;;;-0.15;98.96
47556;BME280;33291;46.222;26.460;2022-12-05T00:12:01;97673.66;;;-0.11;98.65
47556;BME280;33291;46.222;26.460;2022-12-05T00:14:27;97668.53;;;-0.11;98.47
47556;BME280;33291;46.222;26.460;2022-12-05T00:16:52;97660.22;;;-0.18;98.47
47556;BME280;33291;46.222;26.460;2022-12-05T00:19:18;97666.00;;;-0.11;98.50
47556;BME280;33291;46.222;26.460;2022-12-05T00:21:44;97658.47;;;-0.17;98.16
47556;BME280;33291;46.222;26.460;2022-12-05T00:24:12;97671.97;;;-0.12;98.39
47556;BME280;33291;46.222;26.460;2022-12-05T00:26:38;97673.66;;;-0.11;98.46
47556;BME280;33291;46.222;26.460;2022-12-05T00:29:04;97671.19;;;-0.14;98.51
47556;BME280;33291;46.222;26.460;2022-12-05T00:31:29;97675.41;;;-0.12;98.66
47556;BME280;33291;46.222;26.460;2022-12-05T00:33:59;97671.19;;;-0.14;98.49
47556;BME280;33291;46.222;26.460;2022-12-05T00:36:27;97669.47;;;-0.14;98.87
47556;BME280;33291;46.222;26.460;2022-12-05T00:38:53;97672.16;;;-0.19;98.57
47556;BME280;33291;46.222;26.460;2022-12-05T00:41:21;97673.81;;;-0.16;98.58
47556;BME280;33291;46.222;26.460;2022-12-05T00:43:47;97669.59;;;-0.19;98.80
47556;BME280;33291;46.222;26.460;2022-12-05T00:46:16;97665.47;;;-0.23;98.67
47556;BME280;33291;46.222;26.460;2022-12-05T00:48:42;97660.38;;;-0.24;98.90
47556;BME280;33291;46.222;26.460;2022-12-05T00:51:14;97675.63;;;-0.20;98.48
47556;BME280;33291;46.222;26.460;2022-12-05T00:53:41;97661.25;;;-0.25;98.53
47556;BME280;33291;46.222;26.460;2022-12-05T00:56:12;97667.22;;;-0.25;98.56
47556;BME280;33291;46.222;26.460;2022-12-05T00:58:38;97663.81;;;-0.25;98.35
47556;BME280;33291;46.222;26.460;2022-12-05T01:01:16;97652.84;;;-0.29;98.24
47556;BME280;33291;46.222;26.460;2022-12-05T01:03:43;97653.72;;;-0.30;98.32
47556;BME280;33291;46.222;26.460;2022-12-05T01:06:10;97665.66;;;-0.29;98.08
47556;BME280;33291;46.222;26.460;2022-12-05T01:08:36;97653.81;;;-0.33;97.43
47556;BME280;33291;46.222;26.460;2022-12-05T01:11:03;97659.84;;;-0.36;97.65
47556;BME280;33291;46.222;26.460;2022-12-05T01:13:29;97643.78;;;-0.41;97.70
47556;BME280;33291;46.222;26.460;2022-12-05T01:15:55;97630.22;;;-0.44;97.78
47556;BME280;33291;46.222;26.460;2022-12-05T01:18:21;97643.72;;;-0.39;97.55
47556;BME280;33291;46.222;26.460;2022-12-05T01:20:47;97635.31;;;-0.44;97.71
47556;BME280;33291;46.222;26.460;2022-12-05T01:23:13;97641.25;;;-0.42;97.61
47556;BME280;33291;46.222;26.460;2022-12-05T01:25:42;97640.34;;;-0.41;97.43
47556;BME280;33291;46.222;26.460;2022-12-05T01:28:08;97631.09;;;-0.45;97.39
47556;BME280;33291;46.222;26.460;2022-12-05T01:30:39;97638.75;;;-0.44;97.21
47556;BME280;33291;46.222;26.460;2022-12-05T01:33:06;97639.63;;;-0.45;97.42
47556;BME280;33291;46.222;26.460;2022-12-05T01:35:36;97637.09;;;-0.46;97.51
47556;BME280;33291;46.222;26.460;2022-12-05T01:38:02;97640.28;;;-0.38;97.35
47556;BME280;33291;46.222;26.460;2022-12-05T01:40:28;97638.53;;;-0.36;97.29
47556;BME280;33291;46.222;26.460;2022-12-05T01:42:54;97643.66;;;-0.36;97.19
47556;BME280;33291;46.222;26.460;2022-12-05T01:45:30;97609.22;;;-0.56;97.01
47556;BME280;33291;46.222;26.460;2022-12-05T01:47:57;97639.41;;;-0.37;97.05
47556;BME280;33291;46.222;26.460;2022-12-05T01:50:22;97642.03;;;-0.40;97.09
47556;BME280;33291;46.222;26.460;2022-12-05T01:52:48;97638.63;;;-0.39;96.96
47556;BME280;33291;46.222;26.460;2022-12-05T01:55:15;97607.50;;;-0.57;97.04
47556;BME280;33291;46.222;26.460;2022-12-05T01:57:43;97637.63;;;-0.35;97.35
47556;BME280;33291;46.222;26.460;2022-12-05T02:00:18;97647.81;;;-0.33;96.98
47556;BME280;33291;46.222;26.460;2022-12-05T02:02:57;97636.78;;;-0.36;96.80
47556;BME280;33291;46.222;26.460;2022-12-05T02:05:27;97644.44;;;-0.34;96.97
47556;BME280;33291;46.222;26.460;2022-12-05T02:07:53;97631.81;;;-0.40;97.04
47556;BME280;33291;46.222;26.460;2022-12-05T02:10:19;97637.66;;;-0.37;97.05
47556;BME280;33291;46.222;26.460;2022-12-05T02:12:45;97632.53;;;-0.37;96.91
47556;BME280;33291;46.222;26.460;2022-12-05T02:20:55;97635.97;;;-0.36;96.79
47556;BME280;33291;46.222;26.460;2022-12-05T02:26:58;97627.50;;;-0.40;96.47
47556;BME280;33291;46.222;26.460;2022-12-05T02:41:11;97625.91;;;-0.42;96.53
47556;BME280;33291;46.222;26.460;2022-12-05T02:43:42;97625.84;;;-0.41;96.45
47556;BME280;33291;46.222;26.460;2022-12-05T02:46:14;97626.72;;;-0.42;96.60
47556;BME280;33291;46.222;26.460;2022-12-05T02:48:44;97623.34;;;-0.42;96.50
47556;BME280;33291;46.222;26.460;2022-12-05T02:51:13;97621.78;;;-0.48;96.74
47556;BME280;33291;46.222;26.460;2022-12-05T02:53:42;97615.78;;;-0.47;96.85
47556;BME280;33291;46.222;26.460;2022-12-05T02:56:09;97631.88;;;-0.43;96.78
47556;BME280;33291;46.222;26.460;2022-12-05T02:58:54;97628.50;;;-0.44;97.03
47556;BME280;33291;46.222;26.460;2022-12-05T03:01:23;97625.22;;;-0.49;96.85
47556;BME280;33291;46.222;26.460;2022-12-05T03:03:49;97626.84;;;-0.46;97.27
47556;BME280;33291;46.222;26.460;2022-12-05T03:06:28;97626.13;;;-0.50;96.98
47556;BME280;33291;46.222;26.460;2022-12-05T03:09:20;97620.19;;;-0.52;97.19
47556;BME280;33291;46.222;26.460;2022-12-05T03:11:51;97610.22;;;-0.61;96.91
47556;BME280;33291;46.222;26.460;2022-12-05T03:14:32;97627.72;;;-0.47;97.10
47556;BME280;33291;46.222;26.460;2022-12-05T03:17:02;97618.44;;;-0.50;97.02
47556;BME280;33291;46.222;26.460;2022-12-05T03:19:43;97624.44;;;-0.51;97.07
47556;BME280;33291;46.222;26.460;2022-12-05T03:22:23;97615.09;;;-0.54;97.02
47556;BME280;33291;46.222;26.460;2022-12-05T03:24:52;97611.75;;;-0.56;96.97
47556;BME280;33291;46.222;26.460;2022-12-05T03:27:28;97627.72;;;-0.47;97.04
47556;BME280;33291;46.222;26.460;2022-12-05T03:30:05;97623.50;;;-0.48;96.87
47556;BME280;33291;46.222;26.460;2022-12-05T03:32:36;97620.09;;;-0.49;96.73
47556;BME280;33291;46.222;26.460;2022-12-05T03:38:07;97622.69;;;-0.50;96.92
47556;BME280;33291;46.222;26.460;2022-12-05T03:40:52;97625.34;;;-0.54;97.01
47556;BME280;33291;46.222;26.460;2022-12-05T03:43:20;97625.34;;;-0.54;96.99
47556;BME280;33291;46.222;26.460;2022-12-05T03:46:08;97623.69;;;-0.55;96.96
47556;BME280;33291;46.222;26.460;2022-12-05T03:51:27;97628.13;;;-0.61;96.69
47556;BME280;33291;46.222;26.460;2022-12-05T03:54:09;97619.81;;;-0.69;96.67
47556;BME280;33291;46.222;26.460;2022-12-05T03:56:59;97628.19;;;-0.64;96.75
47556;BME280;33291;46.222;26.460;2022-12-05T03:59:33;97624.00;;;-0.67;96.84
47556;BME280;33291;46.222;26.460;2022-12-05T04:02:03;97593.00;;;-0.87;96.91
47556;BME280;33291;46.222;26.460;2022-12-05T04:04:38;97625.78;;;-0.69;97.02
47556;BME280;33291;46.222;26.460;2022-12-05T04:07:05;97624.00;;;-0.67;96.88
47556;BME280;33291;46.222;26.460;2022-12-05T04:09:54;97629.06;;;-0.65;96.96
47556;BME280;33291;46.222;26.460;2022-12-05T04:12:26;97629.13;;;-0.67;96.78
47556;BME280;33291;46.222;26.460;2022-12-05T04:14:56;97630.88;;;-0.69;96.66
47556;BME280;33291;46.222;26.460;2022-12-05T04:19:57;97611.50;;;-0.78;96.79
47556;BME280;33291;46.222;26.460;2022-12-05T04:22:43;97601.38;;;-0.82;96.78
47556;BME280;33291;46.222;26.460;2022-12-05T04:25:11;97624.09;;;-0.70;96.69
47556;BME280;33291;46.222;26.460;2022-12-05T04:30:36;97623.00;;;-0.61;96.84
47556;BME280;33291;46.222;26.460;2022-12-05T04:33:09;97623.84;;;-0.61;96.46
47556;BME280;33291;46.222;26.460;2022-12-05T04:35:49;97622.16;;;-0.62;96.49
47556;BME280;33291;46.222;26.460;2022-12-05T04:38:48;97624.66;;;-0.59;96.54
47556;BME280;33291;46.222;26.460;2022-12-05T04:45:01;97621.22;;;-0.58;96.35
47556;BME280;33291;46.222;26.460;2022-12-05T04:47:30;97627.16;;;-0.57;96.36
47556;BME280;33291;46.222;26.460;2022-12-05T04:49:57;97623.72;;;-0.56;95.98
47556;BME280;33291;46.222;26.460;2022-12-05T04:52:24;97616.28;;;-0.65;96.01
47556;BME280;33291;46.222;26.460;2022-12-05T04:55:04;97627.28;;;-0.62;96.04
47556;BME280;33291;46.222;26.460;2022-12-05T04:57:38;97619.75;;;-0.66;96.47
47556;BME280;33291;46.222;26.460;2022-12-05T05:00:06;97597.97;;;-0.81;96.64
47556;BME280;33291;46.222;26.460;2022-12-05T05:02:44;97616.38;;;-0.68;96.58
47556;BME280;33291;46.222;26.460;2022-12-05T05:05:13;97627.47;;;-0.68;96.60
47556;BME280;33291;46.222;26.460;2022-12-05T05:07:47;97620.78;;;-0.74;96.52
47556;BME280;33291;46.222;26.460;2022-12-05T05:10:15;97619.09;;;-0.75;96.54
47556;BME280;33291;46.222;26.460;2022-12-05T05:12:44;97596.53;;;-0.92;96.66
47556;BME280;33291;46.222;26.460;2022-12-05T05:15:09;97625.84;;;-0.72;96.53
47556;BME280;33291;46.222;26.460;2022-12-05T05:17:35;97627.53;;;-0.71;96.62
47556;BME280;33291;46.222;26.460;2022-12-05T05:20:00;97627.53;;;-0.71;96.69
47556;BME280;33291;46.222;26.460;2022-12-05T05:22:47;97633.50;;;-0.70;96.55
47556;BME280;33291;46.222;26.460;2022-12-05T05:25:13;97621.66;;;-0.75;96.30
47556;BME280;33291;46.222;26.460;2022-12-05T05:27:38;97626.63;;;-0.70;96.19
47556;BME280;33291;46.222;26.460;2022-12-05T05:30:04;97623.38;;;-0.75;96.51
47556;BME280;33291;46.222;26.460;2022-12-05T05:32:31;97619.06;;;-0.73;96.36
47556;BME280;33291;46.222;26.460;2022-12-05T05:34:57;97632.63;;;-0.69;96.18
47556;BME280;33291;46.222;26.460;2022-12-05T05:37:22;97628.47;;;-0.74;96.15
47556;BME280;33291;46.222;26.460;2022-12-05T05:39:48;97641.13;;;-0.69;96.14
47556;BME280;33291;46.222;26.460;2022-12-05T05:42:13;97641.13;;;-0.69;96.35
47556;BME280;33291;46.222;26.460;2022-12-05T05:44:39;97619.19;;;-0.78;96.23
47556;BME280;33291;46.222;26.460;2022-12-05T05:47:04;97629.28;;;-0.73;96.45
47556;BME280;33291;46.222;26.460;2022-12-05T05:49:30;97630.31;;;-0.79;96.47
47556;BME280;33291;46.222;26.460;2022-12-05T05:51:55;97637.00;;;-0.75;96.52
47556;BME280;33291;46.222;26.460;2022-12-05T05:54:21;97630.31;;;-0.79;96.27
47556;BME280;33291;46.222;26.460;2022-12-05T05:56:46;97642.03;;;-0.72;96.87
47556;BME280;33291;46.222;26.460;2022-12-05T05:59:11;97610.91;;;-0.87;96.41
47556;BME280;33291;46.222;26.460;2022-12-05T06:01:37;97620.06;;;-0.79;96.34
47556;BME280;33291;46.222;26.460;2022-12-05T06:04:02;97633.53;;;-0.72;96.36
47556;BME280;33291;46.222;26.460;2022-12-05T06:06:28;97623.38;;;-0.75;96.25
47556;BME280;33291;46.222;26.460;2022-12-05T06:08:53;97621.66;;;-0.75;96.32
47556;BME280;33291;46.222;26.460;2022-12-05T06:11:21;97627.47;;;-0.68;96.24
47556;BME280;33291;46.222;26.460;2022-12-05T06:13:47;97622.34;;;-0.68;96.23
47556;BME280;33291;46.222;26.460;2022-12-05T06:16:14;97626.59;;;-0.68;96.40
47556;BME280;33291;46.222;26.460;2022-12-05T06:18:40;97634.16;;;-0.64;96.38
47556;BME280;33291;46.222;26.460;2022-12-05T06:21:06;97624.00;;;-0.67;96.20
47556;BME280;33291;46.222;26.460;2022-12-05T06:23:35;97625.78;;;-0.69;96.10
47556;BME280;33291;46.222;26.460;2022-12-05T06:26:02;97634.09;;;-0.62;96.33
47556;BME280;33291;46.222;26.460;2022-12-05T06:28:28;97613.09;;;-0.74;96.24
47556;BME280;33291;46.222;26.460;2022-12-05T06:30:54;97627.47;;;-0.68;96.63
47556;BME280;33291;46.222;26.460;2022-12-05T06:33:20;97615.56;;;-0.70;96.54
47556;BME280;33291;46.222;26.460;2022-12-05T06:35:46;97628.19;;;-0.64;96.57
47556;BME280;33291;46.222;26.460;2022-12-05T06:38:12;97601.47;;;-0.85;96.47
47556;BME280;33291;46.222;26.460;2022-12-05T06:40:42;97629.16;;;-0.68;96.53
47556;BME280;33291;46.222;26.460;2022-12-05T06:43:09;97634.28;;;-0.68;96.63
47556;BME280;33291;46.222;26.460;2022-12-05T06:45:37;97633.44;;;-0.69;96.67
47556;BME280;33291;46.222;26.460;2022-12-05T06:48:02;97639.31;;;-0.65;96.70
47556;BME280;33291;46.222;26.460;2022-12-05T06:50:28;97642.72;;;-0.65;96.77
47556;BME280;33291;46.222;26.460;2022-12-05T06:52:53;97641.88;;;-0.65;96.74
47556;BME280;33291;46.222;26.460;2022-12-05T06:55:19;97642.00;;;-0.70;96.95
47556;BME280;33291;46.222;26.460;2022-12-05T06:57:44;97639.47;;;-0.72;96.85
47556;BME280;33291;46.222;26.460;2022-12-05T07:00:10;97652.28;;;-0.72;97.33
47556;BME280;33291;46.222;26.460;2022-12-05T07:02:54;97642.19;;;-0.78;96.91
47556;BME280;33291;46.222;26.460;2022-12-05T07:05:20;97656.53;;;-0.70;96.81
47556;BME280;33291;46.222;26.460;2022-12-05T07:07:45;97657.31;;;-0.68;96.98
47556;BME280;33291;46.222;26.460;2022-12-05T07:10:11;97666.63;;;-0.66;97.19
47556;BME280;33291;46.222;26.460;2022-12-05T07:12:36;97634.66;;;-0.82;96.85
47556;BME280;33291;46.222;26.460;2022-12-05T07:15:02;97659.75;;;-0.64;96.87
47556;BME280;33291;46.222;26.460;2022-12-05T07:17:28;97659.78;;;-0.65;96.80
47556;BME280;33291;46.222;26.460;2022-12-05T07:19:53;97653.13;;;-0.71;96.86
47556;BME280;33291;46.222;26.460;2022-12-05T07:22:21;97656.41;;;-0.66;96.57
47556;BME280;33291;46.222;26.460;2022-12-05T07:24:47;97649.66;;;-0.70;96.73
47556;BME280;33291;46.222;26.460;2022-12-05T07:27:15;97660.63;;;-0.65;96.58
47556;BME280;33291;46.222;26.460;2022-12-05T07:29:40;97658.13;;;-0.66;96.62
47556;BME280;33291;46.222;26.460;2022-12-05T07:32:06;97663.13;;;-0.62;96.42
47556;BME280;33291;46.222;26.460;2022-12-05T07:34:32;97663.13;;;-0.62;96.31
47556;BME280;33291;46.222;26.460;2022-12-05T07:36:59;97658.78;;;-0.60;96.33
47556;BME280;33291;46.222;26.460;2022-12-05T07:39:24;97644.38;;;-0.64;96.38
47556;BME280;33291;46.222;26.460;2022-12-05T07:41:50;97648.69;;;-0.64;96.23
47556;BME280;33291;46.222;26.460;2022-12-05T07:44:23;97659.59;;;-0.58;96.21
47556;BME280;33291;46.222;26.460;2022-12-05T07:46:48;97627.63;;;-0.74;96.49
47556;BME280;33291;46.222;26.460;2022-12-05T07:49:14;97657.84;;;-0.56;96.50
47556;BME280;33291;46.222;26.460;2022-12-05T07:51:42;97662.13;;;-0.56;96.40
47556;BME280;33291;46.222;26.460;2022-12-05T07:54:08;97665.50;;;-0.56;96.55
47556;BME280;33291;46.222;26.460;2022-12-05T07:56:33;97668.84;;;-0.54;96.10
47556;BME280;33291;46.222;26.460;2022-12-05T07:58:59;97664.56;;;-0.51;95.90
47556;BME280;33291;46.222;26.460;2022-12-05T08:01:26;97664.63;;;-0.55;95.91
47556;BME280;33291;46.222;26.460;2022-12-05T08:03:53;97668.06;;;-0.56;95.93
47556;BME280;33291;46.222;26.460;2022-12-05T08:06:21;97663.75;;;-0.54;96.13
47556;BME280;33291;46.222;26.460;2022-12-05T08:08:46;97658.63;;;-0.54;96.17
47556;BME280;33291;46.222;26.460;2022-12-05T08:11:35;97664.59;;;-0.53;96.38
47556;BME280;33291;46.222;26.460;2022-12-05T08:14:03;97662.03;;;-0.53;96.43
47556;BME280;33291;46.222;26.460;2022-12-05T08:16:30;97656.97;;;-0.55;96.31
47556;BME280;33291;46.222;26.460;2022-12-05T08:19:03;97654.31;;;-0.51;96.26
47556;BME280;33291;46.222;26.460;2022-12-05T08:21:29;97661.94;;;-0.50;96.15
47556;BME280;33291;46.222;26.460;2022-12-05T08:23:55;97652.63;;;-0.52;96.12
47556;BME280;33291;46.222;26.460;2022-12-05T08:26:23;97659.34;;;-0.48;96.13
47556;BME280;33291;46.222;26.460;2022-12-05T08:28:52;97652.59;;;-0.51;95.93
47556;BME280;33291;46.222;26.460;2022-12-05T08:31:19;97658.53;;;-0.50;96.09
47556;BME280;33291;46.222;26.460;2022-12-05T08:33:45;97659.41;;;-0.50;96.08
47556;BME280;33291;46.222;26.460;2022-12-05T08:36:13;97659.34;;;-0.48;96.04
47556;BME280;33291;46.222;26.460;2022-12-05T08:38:40;97651.63;;;-0.47;95.87
47556;BME280;33291;46.222;26.460;2022-12-05T08:41:11;97649.03;;;-0.45;95.38
47556;BME280;33291;46.222;26.460;2022-12-05T08:43:37;97640.53;;;-0.47;94.82
47556;BME280;33291;46.222;26.460;2022-12-05T08:46:03;97647.22;;;-0.42;95.17
47556;BME280;33291;46.222;26.460;2022-12-05T08:48:30;97648.03;;;-0.41;95.01
47556;BME280;33291;46.222;26.460;2022-12-05T08:50:57;97641.13;;;-0.38;94.86
47556;BME280;33291;46.222;26.460;2022-12-05T08:53:23;97643.69;;;-0.38;94.78
47556;BME280;33291;46.222;26.460;2022-12-05T08:55:49;97635.91;;;-0.34;94.69
47556;BME280;33291;46.222;26.460;2022-12-05T08:58:14;97643.38;;;-0.27;94.78
47556;BME280;33291;46.222;26.460;2022-12-05T09:00:40;97637.38;;;-0.26;94.35
47556;BME280;33291;46.222;26.460;2022-12-05T09:03:07;97636.56;;;-0.28;94.31
47556;BME280;33291;46.222;26.460;2022-12-05T09:05:33;97628.09;;;-0.30;94.38
47556;BME280;33291;46.222;26.460;2022-12-05T09:07:59;97623.91;;;-0.32;94.37
47556;BME280;33291;46.222;26.460;2022-12-05T09:10:25;97622.91;;;-0.27;94.74
47556;BME280;33291;46.222;26.460;2022-12-05T09:12:50;97633.06;;;-0.24;94.13
47556;BME280;33291;46.222;26.460;2022-12-05T09:15:17;97615.25;;;-0.28;94.32
47556;BME280;33291;46.222;26.460;2022-12-05T09:17:42;97617.88;;;-0.30;94.00
47556;BME280;33291;46.222;26.460;2022-12-05T09:20:09;97623.69;;;-0.25;93.75
47556;BME280;33291;46.222;26.460;2022-12-05T09:22:36;97616.91;;;-0.26;93.86
47556;BME280;33291;46.222;26.460;2022-12-05T09:25:02;97598.25;;;-0.31;93.64
47556;BME280;33291;46.222;26.460;2022-12-05T09:27:28;97611.66;;;-0.21;93.53
47556;BME280;33291;46.222;26.460;2022-12-05T09:29:53;97609.72;;;-0.14;93.26
47556;BME280;33291;46.222;26.460;2022-12-05T09:32:19;97610.56;;;-0.14;92.82
47556;BME280;33291;46.222;26.460;2022-12-05T09:34:44;97606.34;;;-0.15;93.02
47556;BME280;33291;46.222;26.460;2022-12-05T09:37:10;97580.34;;;-0.31;92.95
47556;BME280;33291;46.222;26.460;2022-12-05T09:39:35;97589.19;;;-0.13;92.85
47556;BME280;33291;46.222;26.460;2022-12-05T09:45:06;97582.34;;;-0.12;92.20
47556;BME280;33291;46.222;26.460;2022-12-05T09:47:45;97593.41;;;-0.10;92.49
47556;BME280;33291;46.222;26.460;2022-12-05T09:52:41;97583.06;;;-0.07;92.97
47556;BME280;33291;46.222;26.460;2022-12-05T09:55:14;97580.41;;;-0.04;93.16
47556;BME280;33291;46.222;26.460;2022-12-05T09:57:44;97569.44;;;-0.09;92.90
47556;BME280;33291;46.222;26.460;2022-12-05T10:00:11;97575.28;;;-0.04;92.59
47556;BME280;33291;46.222;26.460;2022-12-05T10:02:43;97578.72;;;-0.05;92.61
47556;BME280;33291;46.222;26.460;2022-12-05T10:05:25;97583.78;;;-0.04;93.00
47556;BME280;33291;46.222;26.460;2022-12-05T10:08:04;97577.84;;;-0.04;92.98
47556;BME280;33291;46.222;26.460;2022-12-05T10:10:47;97568.38;;;-0.02;92.83
47556;BME280;33291;46.222;26.460;2022-12-05T10:16:04;97562.22;;;0.04;92.63
47556;BME280;33291;46.222;26.460;2022-12-05T10:21:09;97546.28;;;-0.06;93.19
47556;BME280;33291;46.222;26.460;2022-12-05T10:23:58;97564.84;;;0.02;92.88
47556;BME280;33291;46.222;26.460;2022-12-05T10:26:48;97568.22;;;0.03;92.97
47556;BME280;33291;46.222;26.460;2022-12-05T10:29:37;97555.38;;;0.04;93.07
47556;BME280;33291;46.222;26.460;2022-12-05T10:32:20;97548.56;;;0.05;93.50
47556;BME280;33291;46.222;26.460;2022-12-05T10:34:47;97539.91;;;0.07;92.86
47556;BME280;33291;46.222;26.460;2022-12-05T10:37:19;97539.06;;;0.07;93.10
47556;BME280;33291;46.222;26.460;2022-12-05T10:39:46;97547.59;;;0.07;92.86
47556;BME280;33291;46.222;26.460;2022-12-05T10:42:20;97533.28;;;0.02;93.22
47556;BME280;33291;46.222;26.460;2022-12-05T10:44:51;97537.44;;;0.04;93.42
47556;BME280;33291;46.222;26.460;2022-12-05T10:47:19;97537.44;;;0.04;93.49
47556;BME280;33291;46.222;26.460;2022-12-05T10:49:45;97530.75;;;0.00;93.90
47556;BME280;33291;46.222;26.460;2022-12-05T10:52:12;97533.13;;;0.06;93.88
47556;BME280;33291;46.222;26.460;2022-12-05T10:54:44;97529.84;;;0.01;94.13
47556;BME280;33291;46.222;26.460;2022-12-05T10:57:25;97541.69;;;0.05;94.07
47556;BME280;33291;46.222;26.460;2022-12-05T10:59:52;97535.69;;;0.06;93.86
47556;BME280;33291;46.222;26.460;2022-12-05T11:02:25;97531.75;;;-0.04;94.27
47556;BME280;33291;46.222;26.460;2022-12-05T11:04:52;97531.69;;;-0.03;94.24
47556;BME280;33291;46.222;26.460;2022-12-05T11:09:49;97531.75;;;-0.04;94.97
47556;BME280;33291;46.222;26.460;2022-12-05T11:12:17;97537.69;;;-0.04;94.90
47556;BME280;33291;46.222;26.460;2022-12-05T11:17:26;97514.59;;;-0.02;95.06
47556;BME280;33291;46.222;26.460;2022-12-05T11:19:52;97517.97;;;0.00;94.98
47556;BME280;33291;46.222;26.460;2022-12-05T11:22:18;97509.47;;;-0.02;95.00
47556;BME280;33291;46.222;26.460;2022-12-05T11:24:43;97519.66;;;-0.01;95.15
47556;BME280;33291;46.222;26.460;2022-12-05T11:29:41;97513.56;;;0.04;95.53
47556;BME280;33291;46.222;26.460;2022-12-05T11:32:25;97514.38;;;0.04;95.96
47556;BME280;33291;46.222;26.460;2022-12-05T11:35:10;97505.81;;;0.05;95.75
47556;BME280;33291;46.222;26.460;2022-12-05T11:51:33;97472.78;;;-0.03;95.82
47556;BME280;33291;46.222;26.460;2022-12-05T11:56:57;97469.97;;;0.05;95.66
47556;BME280;33291;46.222;26.460;2022-12-05T11:59:44;97467.41;;;0.05;95.94
47556;BME280;33291;46.222;26.460;2022-12-05T12:07:55;97466.41;;;0.09;95.78
47556;BME280;33291;46.222;26.460;2022-12-05T12:13:22;97471.44;;;0.12;95.71
47556;BME280;33291;46.222;26.460;2022-12-05T12:18:53;97457.78;;;0.12;95.79
47556;BME280;33291;46.222;26.460;2022-12-05T12:30:03;97441.56;;;0.11;95.49
47556;BME280;33291;46.222;26.460;2022-12-05T12:35:45;97441.72;;;0.07;95.90
47556;BME280;33291;46.222;26.460;2022-12-05T12:44:06;97440.91;;;0.06;96.28
47556;BME280;33291;46.222;26.460;2022-12-05T12:49:52;97446.03;;;0.06;96.73
47556;BME280;33291;46.222;26.460;2022-12-05T13:01:39;97422.38;;;-0.02;97.68
47556;BME280;33291;46.222;26.460;2022-12-05T13:04:13;97434.09;;;0.05;97.80
47556;BME280;33291;46.222;26.460;2022-12-05T13:06:56;97435.78;;;0.06;97.97
47556;BME280;33291;46.222;26.460;2022-12-05T13:09:29;97429.91;;;0.03;98.30
47556;BME280;33291;46.222;26.460;2022-12-05T13:12:01;97431.53;;;0.05;98.44
47556;BME280;33291;46.222;26.460;2022-12-05T13:14:30;97433.22;;;0.06;98.54
47556;BME280;33291;46.222;26.460;2022-12-05T13:16:58;97422.16;;;0.04;98.56
47556;BME280;33291;46.222;26.460;2022-12-05T13:22:05;97424.88;;;-0.01;98.83
47556;BME280;33291;46.222;26.460;2022-12-05T13:24:32;97421.53;;;-0.03;98.66
47556;BME280;33291;46.222;26.460;2022-12-05T13:27:06;97425.88;;;-0.05;99.37
47556;BME280;33291;46.222;26.460;2022-12-05T13:29:47;97420.78;;;-0.06;99.78
47556;BME280;33291;46.222;26.460;2022-12-05T13:32:34;97428.47;;;-0.06;99.62
47556;BME280;33291;46.222;26.460;2022-12-05T13:37:46;97420.00;;;-0.08;99.86
47556;BME280;33291;46.222;26.460;2022-12-05T13:40:32;97426.88;;;-0.09;100.00
47556;BME280;33291;46.222;26.460;2022-12-05T13:43:19;97429.44;;;-0.09;100.00
47556;BME280;33291;46.222;26.460;2022-12-05T13:46:07;97422.69;;;-0.11;100.00
47556;BME280;33291;46.222;26.460;2022-12-05T13:48:36;97419.34;;;-0.13;100.00
47556;BME280;33291;46.222;26.460;2022-12-05T13:56:21;97422.06;;;-0.18;100.00
47556;BME280;33291;46.222;26.460;2022-12-05T13:58:51;97428.81;;;-0.17;100.00
47556;BME280;33291;46.222;26.460;2022-12-05T14:03:58;97431.50;;;-0.20;100.00
47556;BME280;33291;46.222;26.460;2022-12-05T14:17:25;97425.75;;;-0.27;100.00
47556;BME280;33291;46.222;26.460;2022-12-05T14:22:58;97424.16;;;-0.31;100.00
47556;BME280;33291;46.222;26.460;2022-12-05T14:28:47;97430.09;;;-0.29;100.00
47556;BME280;33291;46.222;26.460;2022-12-05T14:39:48;97421.69;;;-0.34;100.00
47556;BME280;33291;46.222;26.460;2022-12-05T14:42:37;97430.09;;;-0.29;100.00
47556;BME280;33291;46.222;26.460;2022-12-05T14:47:55;97428.41;;;-0.30;100.00
47556;BME280;33291;46.222;26.460;2022-12-05T14:53:21;97432.91;;;-0.38;100.00
47556;BME280;33291;46.222;26.460;2022-12-05T15:04:05;97420.41;;;-0.47;100.00
47556;BME280;33291;46.222;26.460;2022-12-05T15:06:36;97418.75;;;-0.48;100.00
47556;BME280;33291;46.222;26.460;2022-12-05T15:09:07;97405.38;;;-0.58;100.00
47556;BME280;33291;46.222;26.460;2022-12-05T15:11:45;97423.06;;;-0.50;100.00
47556;BME280;33291;46.222;26.460;2022-12-05T15:14:22;97429.00;;;-0.48;100.00
47556;BME280;33291;46.222;26.460;2022-12-05T15:16:52;97430.63;;;-0.47;100.00
47556;BME280;33291;46.222;26.460;2022-12-05T15:19:24;97426.44;;;-0.48;100.00
47556;BME280;33291;46.222;26.460;2022-12-05T15:21:56;97425.53;;;-0.47;100.00
47556;BME280;33291;46.222;26.460;2022-12-05T15:24:23;97418.84;;;-0.51;100.00
47556;BME280;33291;46.222;26.460;2022-12-05T15:31:51;97423.78;;;-0.45;100.00
47556;BME280;33291;46.222;26.460;2022-12-05T15:37:16;97424.59;;;-0.45;100.00
47556;BME280;33291;46.222;26.460;2022-12-05T15:39:56;97419.63;;;-0.49;100.00
47556;BME280;33291;46.222;26.460;2022-12-05T15:42:25;97430.44;;;-0.41;100.00
47556;BME280;33291;46.222;26.460;2022-12-05T15:44:50;97432.13;;;-0.40;100.00
47556;BME280;33291;46.222;26.460;2022-12-05T15:47:21;97407.69;;;-0.50;100.00
47556;BME280;33291;46.222;26.460;2022-12-05T15:49:48;97433.09;;;-0.44;100.00
47556;BME280;33291;46.222;26.460;2022-12-05T15:52:37;97423.72;;;-0.44;100.00
47556;BME280;33291;46.222;26.460;2022-12-05T15:55:13;97433.97;;;-0.44;100.00
47556;BME280;33291;46.222;26.460;2022-12-05T15:57:44;97430.63;;;-0.47;100.00
47556;BME280;33291;46.222;26.460;2022-12-05T16:00:16;97424.75;;;-0.49;100.00